KJG YSCB-YMEN
Flight info
| Callsign | KJG |
|---|---|
| Flight time | 0h 53m |
| Altitude | 20000 |
| Route | DUBUS V169 TEMIS W188 COLDS V512 ESDAN |
| Aircraft | LJ35/M-SGHRWXY/SB1 |
Departure
| Time | 2026-05-01 11:04 |
|---|---|
| Airport | Canberra Airport (YSCB) |
Arrival
| Time | 2026-05-01 11:57 |
|---|---|
| Airport | Melbourne Essendon Airport (YMEN) |
| Time | Latitude | Longitude | Altitude | Speed | Heading |
|---|---|---|---|---|---|
| 2026-05-01 10:44 | -35.30414 | 149.18716 | 1861 ft | 0 kts | 309° |
| 2026-05-01 10:57 | -35.30411 | 149.18711 | 1861 ft | 0 kts | 311° |
| 2026-05-01 10:57 | -35.30385 | 149.18699 | 1861 ft | 8 kts | 359° |
| 2026-05-01 10:57 | -35.30318 | 149.18690 | 1860 ft | 9 kts | 43° |
| 2026-05-01 10:58 | -35.30343 | 149.18746 | 1862 ft | 9 kts | 130° |
| 2026-05-01 10:58 | -35.30390 | 149.18815 | 1866 ft | 11 kts | 130° |
| 2026-05-01 10:58 | -35.30447 | 149.18892 | 1868 ft | 14 kts | 140° |
| 2026-05-01 10:58 | -35.30519 | 149.18988 | 1872 ft | 16 kts | 128° |
| 2026-05-01 10:59 | -35.30593 | 149.19102 | 1878 ft | 18 kts | 130° |
| 2026-05-01 10:59 | -35.30670 | 149.19209 | 1880 ft | 16 kts | 139° |
| 2026-05-01 10:59 | -35.30789 | 149.19238 | 1881 ft | 18 kts | 178° |
| 2026-05-01 10:59 | -35.30918 | 149.19240 | 1878 ft | 18 kts | 181° |
| 2026-05-01 11:00 | -35.31059 | 149.19239 | 1876 ft | 23 kts | 180° |
| 2026-05-01 11:00 | -35.31216 | 149.19238 | 1873 ft | 24 kts | 180° |
| 2026-05-01 11:00 | -35.31386 | 149.19240 | 1869 ft | 22 kts | 173° |
| 2026-05-01 11:00 | -35.31462 | 149.19317 | 1869 ft | 6 kts | 115° |
| 2026-05-01 11:01 | -35.31463 | 149.19319 | 1869 ft | 0 kts | 114° |
| 2026-05-01 11:02 | -35.31464 | 149.19322 | 1870 ft | 4 kts | 112° |
| 2026-05-01 11:03 | -35.31466 | 149.19414 | 1871 ft | 15 kts | 69° |
| 2026-05-01 11:03 | -35.31429 | 149.19443 | 1871 ft | 0 kts | 4° |
| 2026-05-01 11:03 | -35.31102 | 149.19443 | 1876 ft | 123 kts | 0° |
| 2026-05-01 11:03 | -35.29837 | 149.19422 | 2390 ft | 230 kts | 358° |
| 2026-05-01 11:04 | -35.27946 | 149.19412 | 3322 ft | 302 kts | 1° |
| 2026-05-01 11:04 | -35.25658 | 149.19495 | 4283 ft | 354 kts | 1° |
| 2026-05-01 11:04 | -35.23082 | 149.19599 | 5235 ft | 386 kts | 1° |
| 2026-05-01 11:04 | -35.20367 | 149.19725 | 6160 ft | 364 kts | 1° |
| 2026-05-01 11:05 | -35.18153 | 149.19882 | 7005 ft | 278 kts | 2° |
| 2026-05-01 11:05 | -35.16484 | 149.19573 | 7823 ft | 218 kts | 333° |
| 2026-05-01 11:05 | -35.15531 | 149.18378 | 8622 ft | 186 kts | 292° |
| 2026-05-01 11:05 | -35.15485 | 149.16750 | 9441 ft | 207 kts | 256° |
| 2026-05-01 11:06 | -35.15899 | 149.14965 | 10291 ft | 230 kts | 252° |
| 2026-05-01 11:06 | -35.16377 | 149.13027 | 11067 ft | 251 kts | 253° |
| 2026-05-01 11:06 | -35.16926 | 149.10893 | 11896 ft | 269 kts | 253° |
| 2026-05-01 11:07 | -35.18147 | 149.06316 | 13608 ft | 295 kts | 252° |
| 2026-05-01 11:07 | -35.18807 | 149.03893 | 14464 ft | 305 kts | 252° |
| 2026-05-01 11:07 | -35.19494 | 149.01407 | 15260 ft | 312 kts | 252° |
| 2026-05-01 11:07 | -35.20243 | 148.98919 | 16054 ft | 319 kts | 245° |
| 2026-05-01 11:08 | -35.21602 | 148.96753 | 16871 ft | 327 kts | 224° |
| 2026-05-01 11:08 | -35.23377 | 148.94974 | 17726 ft | 331 kts | 218° |
| 2026-05-01 11:08 | -35.26866 | 148.91234 | 19358 ft | 335 kts | 227° |
| 2026-05-01 11:09 | -35.28497 | 148.89185 | 20139 ft | 337 kts | 226° |
| 2026-05-01 11:09 | -35.30181 | 148.87187 | 20932 ft | 338 kts | 224° |
| 2026-05-01 11:09 | -35.31900 | 148.85218 | 21753 ft | 338 kts | 224° |
| 2026-05-01 11:10 | -35.35300 | 148.81211 | 23453 ft | 339 kts | 226° |
| 2026-05-01 11:10 | -35.36987 | 148.79208 | 24267 ft | 339 kts | 225° |
| 2026-05-01 11:10 | -35.38690 | 148.77212 | 25014 ft | 338 kts | 225° |
| 2026-05-01 11:10 | -35.40390 | 148.75216 | 25784 ft | 338 kts | 225° |
| 2026-05-01 11:11 | -35.42070 | 148.73231 | 26561 ft | 337 kts | 225° |
| 2026-05-01 11:11 | -35.43819 | 148.71165 | 27394 ft | 337 kts | 225° |
| 2026-05-01 11:11 | -35.45467 | 148.69220 | 28206 ft | 335 kts | 225° |
| 2026-05-01 11:11 | -35.47144 | 148.67239 | 29063 ft | 334 kts | 225° |
| 2026-05-01 11:12 | -35.48817 | 148.65257 | 29951 ft | 333 kts | 226° |
| 2026-05-01 11:12 | -35.50476 | 148.63294 | 30788 ft | 331 kts | 226° |
| 2026-05-01 11:12 | -35.52126 | 148.61341 | 31572 ft | 329 kts | 226° |
| 2026-05-01 11:12 | -35.53770 | 148.59394 | 32376 ft | 326 kts | 226° |
| 2026-05-01 11:13 | -35.55375 | 148.57491 | 33189 ft | 324 kts | 226° |
| 2026-05-01 11:13 | -35.56989 | 148.55578 | 34042 ft | 315 kts | 226° |
| 2026-05-01 11:13 | -35.58513 | 148.53771 | 34380 ft | 299 kts | 226° |
| 2026-05-01 11:13 | -35.59988 | 148.52016 | 34380 ft | 293 kts | 226° |
| 2026-05-01 11:14 | -35.61441 | 148.50289 | 34379 ft | 287 kts | 226° |
| 2026-05-01 11:14 | -35.62862 | 148.48599 | 34381 ft | 284 kts | 226° |
| 2026-05-01 11:14 | -35.64292 | 148.46895 | 34381 ft | 290 kts | 226° |
| 2026-05-01 11:14 | -35.65770 | 148.45136 | 34383 ft | 300 kts | 226° |
| 2026-05-01 11:15 | -35.68850 | 148.41469 | 34401 ft | 316 kts | 227° |
| 2026-05-01 11:15 | -35.72084 | 148.37615 | 34398 ft | 330 kts | 226° |
| 2026-05-01 11:16 | -35.75443 | 148.33604 | 34399 ft | 342 kts | 226° |
| 2026-05-01 11:16 | -35.78910 | 148.29460 | 34390 ft | 351 kts | 226° |
| 2026-05-01 11:17 | -35.82445 | 148.25230 | 34384 ft | 358 kts | 227° |
| 2026-05-01 11:17 | -35.86023 | 148.20943 | 34384 ft | 363 kts | 227° |
| 2026-05-01 11:18 | -35.89673 | 148.16563 | 34376 ft | 367 kts | 227° |
| 2026-05-01 11:18 | -35.93399 | 148.12085 | 34371 ft | 370 kts | 227° |
| 2026-05-01 11:19 | -35.97096 | 148.07638 | 34370 ft | 372 kts | 227° |
| 2026-05-01 11:19 | -36.00808 | 148.03164 | 34366 ft | 374 kts | 227° |
| 2026-05-01 11:20 | -36.04535 | 147.98667 | 34359 ft | 374 kts | 227° |
| 2026-05-01 11:20 | -36.08287 | 147.94134 | 34361 ft | 375 kts | 227° |
| 2026-05-01 11:21 | -36.11998 | 147.89642 | 34356 ft | 376 kts | 227° |
| 2026-05-01 11:21 | -36.15543 | 147.84912 | 34343 ft | 372 kts | 239° |
| 2026-05-01 11:22 | -36.18399 | 147.79567 | 34350 ft | 372 kts | 239° |
| 2026-05-01 11:22 | -36.21273 | 147.74226 | 34352 ft | 373 kts | 239° |
| 2026-05-01 11:23 | -36.24119 | 147.68898 | 34354 ft | 372 kts | 239° |
| 2026-05-01 11:23 | -36.26978 | 147.63556 | 34350 ft | 373 kts | 239° |
| 2026-05-01 11:24 | -36.29838 | 147.58195 | 34345 ft | 373 kts | 240° |
| 2026-05-01 11:25 | -36.34145 | 147.50111 | 34342 ft | 373 kts | 240° |
| 2026-05-01 11:25 | -36.36967 | 147.44817 | 34110 ft | 354 kts | 240° |
| 2026-05-01 11:25 | -36.38297 | 147.42314 | 33826 ft | 339 kts | 240° |
| 2026-05-01 11:26 | -36.39565 | 147.39913 | 33540 ft | 327 kts | 240° |
| 2026-05-01 11:26 | -36.41982 | 147.35353 | 32979 ft | 307 kts | 240° |
| 2026-05-01 11:26 | -36.42754 | 147.33897 | 32791 ft | 302 kts | 241° |
| 2026-05-01 11:27 | -36.43906 | 147.31718 | 32511 ft | 294 kts | 241° |
| 2026-05-01 11:27 | -36.45004 | 147.29641 | 32240 ft | 288 kts | 241° |
| 2026-05-01 11:27 | -36.46094 | 147.27580 | 31968 ft | 283 kts | 241° |
| 2026-05-01 11:27 | -36.47167 | 147.25548 | 31708 ft | 278 kts | 241° |
| 2026-05-01 11:28 | -36.48222 | 147.23550 | 31445 ft | 275 kts | 241° |
| 2026-05-01 11:28 | -36.49266 | 147.21577 | 31189 ft | 271 kts | 241° |
| 2026-05-01 11:28 | -36.50299 | 147.19612 | 30938 ft | 274 kts | 242° |
| 2026-05-01 11:29 | -36.52419 | 147.15584 | 30464 ft | 283 kts | 241° |
| 2026-05-01 11:29 | -36.53500 | 147.13536 | 30337 ft | 281 kts | 241° |
| 2026-05-01 11:29 | -36.55606 | 147.09538 | 30330 ft | 272 kts | 241° |
| 2026-05-01 11:30 | -36.56618 | 147.07610 | 30329 ft | 268 kts | 242° |
| 2026-05-01 11:30 | -36.57629 | 147.05684 | 30326 ft | 263 kts | 241° |
| 2026-05-01 11:30 | -36.58624 | 147.03791 | 30321 ft | 260 kts | 242° |
| 2026-05-01 11:30 | -36.59606 | 147.01917 | 30326 ft | 256 kts | 242° |
| 2026-05-01 11:31 | -36.60576 | 147.00066 | 30327 ft | 253 kts | 242° |
| 2026-05-01 11:31 | -36.61533 | 146.98241 | 30318 ft | 251 kts | 242° |
| 2026-05-01 11:31 | -36.62480 | 146.96433 | 30323 ft | 248 kts | 242° |
| 2026-05-01 11:31 | -36.63418 | 146.94641 | 30324 ft | 246 kts | 242° |
| 2026-05-01 11:32 | -36.64345 | 146.92871 | 30321 ft | 243 kts | 242° |
| 2026-05-01 11:32 | -36.65261 | 146.91118 | 30322 ft | 240 kts | 242° |
| 2026-05-01 11:32 | -36.66167 | 146.89384 | 30326 ft | 237 kts | 242° |
| 2026-05-01 11:32 | -36.67067 | 146.87663 | 30326 ft | 235 kts | 242° |
| 2026-05-01 11:33 | -36.67953 | 146.85967 | 30328 ft | 233 kts | 242° |
| 2026-05-01 11:33 | -36.68841 | 146.84257 | 30326 ft | 246 kts | 242° |
| 2026-05-01 11:33 | -36.69841 | 146.82324 | 30351 ft | 282 kts | 241° |
| 2026-05-01 11:33 | -36.70960 | 146.80178 | 30365 ft | 308 kts | 241° |
| 2026-05-01 11:34 | -36.72181 | 146.77845 | 30362 ft | 334 kts | 240° |
| 2026-05-01 11:34 | -36.73496 | 146.75330 | 30364 ft | 357 kts | 240° |
| 2026-05-01 11:34 | -36.74885 | 146.72659 | 30362 ft | 376 kts | 240° |
| 2026-05-01 11:34 | -36.76340 | 146.69857 | 30358 ft | 393 kts | 240° |
| 2026-05-01 11:35 | -36.77851 | 146.66951 | 30356 ft | 405 kts | 240° |
| 2026-05-01 11:35 | -36.80988 | 146.60907 | 30344 ft | 423 kts | 240° |
| 2026-05-01 11:36 | -36.84226 | 146.54652 | 30342 ft | 434 kts | 240° |
| 2026-05-01 11:36 | -36.87524 | 146.48273 | 30338 ft | 440 kts | 240° |
| 2026-05-01 11:37 | -36.90858 | 146.41806 | 30328 ft | 444 kts | 240° |
| 2026-05-01 11:37 | -36.94211 | 146.35294 | 30324 ft | 446 kts | 240° |
| 2026-05-01 11:38 | -36.97568 | 146.28757 | 30316 ft | 448 kts | 239° |
| 2026-05-01 11:38 | -37.00847 | 146.22323 | 30313 ft | 407 kts | 240° |
| 2026-05-01 11:38 | -37.02322 | 146.19489 | 30298 ft | 370 kts | 239° |
| 2026-05-01 11:39 | -37.03657 | 146.16904 | 30297 ft | 339 kts | 240° |
| 2026-05-01 11:39 | -37.04872 | 146.14511 | 30285 ft | 313 kts | 241° |
| 2026-05-01 11:39 | -37.06001 | 146.12287 | 30278 ft | 293 kts | 241° |
| 2026-05-01 11:39 | -37.07063 | 146.10214 | 30266 ft | 274 kts | 241° |
| 2026-05-01 11:40 | -37.08059 | 146.08265 | 30275 ft | 261 kts | 242° |
| 2026-05-01 11:40 | -37.09026 | 146.06361 | 30284 ft | 250 kts | 242° |
| 2026-05-01 11:40 | -37.09930 | 146.04586 | 30286 ft | 239 kts | 243° |
| 2026-05-01 11:40 | -37.10802 | 146.02873 | 30281 ft | 228 kts | 243° |
| 2026-05-01 11:41 | -37.11658 | 146.01178 | 29843 ft | 236 kts | 243° |
| 2026-05-01 11:41 | -37.12549 | 145.99384 | 29381 ft | 246 kts | 243° |
| 2026-05-01 11:41 | -37.13439 | 145.97482 | 28758 ft | 261 kts | 242° |
| 2026-05-01 11:41 | -37.14493 | 145.95551 | 28195 ft | 274 kts | 240° |
| 2026-05-01 11:42 | -37.15587 | 145.93506 | 27656 ft | 290 kts | 242° |
| 2026-05-01 11:42 | -37.16880 | 145.91521 | 27124 ft | 308 kts | 227° |
| 2026-05-01 11:42 | -37.18609 | 145.89766 | 26604 ft | 321 kts | 220° |
| 2026-05-01 11:42 | -37.20414 | 145.88107 | 26106 ft | 330 kts | 221° |
| 2026-05-01 11:43 | -37.22116 | 145.86146 | 25599 ft | 335 kts | 230° |
| 2026-05-01 11:43 | -37.23680 | 145.83948 | 25096 ft | 340 kts | 233° |
| 2026-05-01 11:43 | -37.25277 | 145.81716 | 24601 ft | 347 kts | 230° |
| 2026-05-01 11:44 | -37.28727 | 145.77486 | 23561 ft | 336 kts | 229° |
| 2026-05-01 11:44 | -37.30352 | 145.75413 | 22955 ft | 331 kts | 230° |
| 2026-05-01 11:44 | -37.31925 | 145.73365 | 22372 ft | 329 kts | 230° |
| 2026-05-01 11:44 | -37.33526 | 145.71322 | 21788 ft | 327 kts | 229° |
| 2026-05-01 11:45 | -37.35128 | 145.69301 | 21212 ft | 326 kts | 229° |
| 2026-05-01 11:45 | -37.36707 | 145.67292 | 20652 ft | 324 kts | 229° |
| 2026-05-01 11:45 | -37.38293 | 145.65257 | 20040 ft | 323 kts | 229° |
| 2026-05-01 11:45 | -37.39865 | 145.63249 | 19496 ft | 321 kts | 229° |
| 2026-05-01 11:46 | -37.41434 | 145.61255 | 18964 ft | 320 kts | 229° |
| 2026-05-01 11:46 | -37.42990 | 145.59269 | 18422 ft | 318 kts | 229° |
| 2026-05-01 11:46 | -37.44536 | 145.57288 | 17817 ft | 316 kts | 229° |
| 2026-05-01 11:46 | -37.46078 | 145.55313 | 17101 ft | 318 kts | 229° |
| 2026-05-01 11:47 | -37.47631 | 145.53293 | 16284 ft | 323 kts | 229° |
| 2026-05-01 11:47 | -37.49153 | 145.51223 | 15634 ft | 321 kts | 231° |
| 2026-05-01 11:47 | -37.50638 | 145.49103 | 14851 ft | 324 kts | 231° |
| 2026-05-01 11:47 | -37.52139 | 145.47000 | 14378 ft | 318 kts | 229° |
| 2026-05-01 11:48 | -37.53649 | 145.44973 | 13349 ft | 321 kts | 229° |
| 2026-05-01 11:48 | -37.55161 | 145.42899 | 12065 ft | 331 kts | 229° |
| 2026-05-01 11:48 | -37.56796 | 145.40819 | 10764 ft | 337 kts | 229° |
| 2026-05-01 11:48 | -37.58418 | 145.38561 | 8903 ft | 353 kts | 230° |
| 2026-05-01 11:49 | -37.60048 | 145.36243 | 7845 ft | 345 kts | 231° |
| 2026-05-01 11:49 | -37.61505 | 145.34177 | 6235 ft | 292 kts | 231° |
| 2026-05-01 11:49 | -37.62841 | 145.32376 | 4962 ft | 255 kts | 233° |
| 2026-05-01 11:49 | -37.63968 | 145.30764 | 4816 ft | 243 kts | 232° |
| 2026-05-01 11:50 | -37.65121 | 145.29216 | 4740 ft | 237 kts | 231° |
| 2026-05-01 11:50 | -37.66253 | 145.27788 | 4646 ft | 235 kts | 227° |
| 2026-05-01 11:50 | -37.67586 | 145.26513 | 4426 ft | 238 kts | 214° |
| 2026-05-01 11:50 | -37.69032 | 145.25476 | 4020 ft | 245 kts | 212° |
| 2026-05-01 11:51 | -37.70397 | 145.24206 | 3618 ft | 242 kts | 226° |
| 2026-05-01 11:51 | -37.71498 | 145.22591 | 3201 ft | 236 kts | 242° |
| 2026-05-01 11:51 | -37.72141 | 145.20751 | 2781 ft | 224 kts | 259° |
| 2026-05-01 11:51 | -37.72331 | 145.18858 | 2646 ft | 202 kts | 275° |
| 2026-05-01 11:52 | -37.72358 | 145.17173 | 2660 ft | 182 kts | 276° |
| 2026-05-01 11:52 | -37.72405 | 145.15668 | 2658 ft | 163 kts | 277° |
| 2026-05-01 11:52 | -37.72448 | 145.14268 | 2657 ft | 156 kts | 278° |
| 2026-05-01 11:52 | -37.72481 | 145.12929 | 2653 ft | 150 kts | 278° |
| 2026-05-01 11:53 | -37.72512 | 145.11608 | 2668 ft | 154 kts | 278° |
| 2026-05-01 11:53 | -37.72546 | 145.10191 | 2673 ft | 168 kts | 276° |
| 2026-05-01 11:53 | -37.72593 | 145.08669 | 2684 ft | 177 kts | 275° |
| 2026-05-01 11:53 | -37.72639 | 145.07123 | 2652 ft | 177 kts | 276° |
| 2026-05-01 11:54 | -37.72685 | 145.05572 | 2440 ft | 169 kts | 276° |
| 2026-05-01 11:54 | -37.72733 | 145.04160 | 2227 ft | 154 kts | 277° |
| 2026-05-01 11:54 | -37.72770 | 145.02854 | 2019 ft | 144 kts | 278° |
| 2026-05-01 11:54 | -37.72800 | 145.01619 | 1836 ft | 140 kts | 277° |
| 2026-05-01 11:55 | -37.72837 | 145.00411 | 1653 ft | 135 kts | 276° |
| 2026-05-01 11:55 | -37.72868 | 144.99255 | 1475 ft | 131 kts | 274° |
| 2026-05-01 11:55 | -37.72903 | 144.98168 | 1300 ft | 129 kts | 273° |
| 2026-05-01 11:55 | -37.72944 | 144.97025 | 1135 ft | 127 kts | 272° |
| 2026-05-01 11:56 | -37.72964 | 144.95932 | 986 ft | 124 kts | 274° |
| 2026-05-01 11:56 | -37.72997 | 144.94838 | 803 ft | 123 kts | 271° |
| 2026-05-01 11:56 | -37.73015 | 144.93778 | 626 ft | 119 kts | 272° |
| 2026-05-01 11:56 | -37.73051 | 144.92712 | 438 ft | 127 kts | 272° |
| 2026-05-01 11:57 | -37.73076 | 144.91604 | 277 ft | 124 kts | 271° |
| 2026-05-01 11:57 | -37.73105 | 144.90930 | 249 ft | 102 kts | 266° |
| 2026-05-01 11:57 | -37.73104 | 144.90181 | 255 ft | 35 kts | 265° |
| 2026-05-01 11:57 | -37.73098 | 144.89997 | 255 ft | 5 kts | 306° |
| 2026-05-01 11:58 | -37.73080 | 144.89979 | 256 ft | 2 kts | 13° |
| 2026-05-01 11:58 | -37.73011 | 144.90001 | 260 ft | 11 kts | 345° |
| 2026-05-01 11:58 | -37.72939 | 144.89866 | 264 ft | 14 kts | 278° |
| 2026-05-01 11:59 | -37.72924 | 144.89730 | 264 ft | 17 kts | 278° |
| 2026-05-01 11:59 | -37.72906 | 144.89566 | 264 ft | 20 kts | 277° |
| 2026-05-01 11:59 | -37.72881 | 144.89413 | 264 ft | 13 kts | 331° |
| 2026-05-01 12:00 | -37.72890 | 144.89352 | 263 ft | 0 kts | 119° |